Time;durP1;ratioP1;P1;durP2;ratioP2;P2;SDS_P1;SDS_P2;PMS_P1;PMS_P2;Temp;Humidity;BMP_temperature;BMP_pressure;BME280_temperature;BME280_humidity;BME280_pressure;Samples;Min_cycle;Max_cycle;Signal;HPM_P1;HPM_P2
2023/05/16 00:00:08;;;;;;;;;;;10.30;99.90;;;;;;5100398;27;20019;-83
2023/05/16 00:02:35;;;;;;;;;;;10.40;99.90;;;;;;5095388;27;19939;-82
2023/05/16 00:05:00;;;;;;;;;;;10.40;99.90;;;;;;5077814;27;19924;-82
2023/05/16 00:07:26;;;;;;;;;;;10.30;99.90;;;;;;5099284;28;19976;-81
2023/05/16 00:09:51;;;;;;;;;;;10.30;99.90;;;;;;5097522;27;20010;-83
2023/05/16 00:12:18;;;;;;;;;;;10.30;99.90;;;;;;5095292;27;20024;-82
2023/05/16 00:14:44;;;;;;;;;;;10.20;99.90;;;;;;5097121;27;20054;-82
2023/05/16 00:17:10;;;;;;;;;;;10.20;99.90;;;;;;5097835;27;19928;-82
2023/05/16 00:19:37;;;;;;;;;;;10.10;99.90;;;;;;5099065;27;19931;-82
2023/05/16 00:22:03;;;;;;;;;;;10.00;99.90;;;;;;5101120;27;20018;-82
2023/05/16 00:24:29;;;;;;;;;;;10.00;99.90;;;;;;5097937;27;19976;-82
2023/05/16 00:26:55;;;;;;;;;;;10.00;99.90;;;;;;5100710;27;19931;-82
2023/05/16 00:29:23;;;;;;;;;;;10.00;99.90;;;;;;5098589;27;20424;-83
2023/05/16 00:31:49;;;;;;;;;;;9.90;99.90;;;;;;5098912;27;19924;-83
2023/05/16 00:34:14;;;;;;;;;;;9.80;99.90;;;;;;5099959;27;20044;-82
2023/05/16 00:36:40;;;;;;;;;;;9.80;99.90;;;;;;5100015;27;19938;-82
2023/05/16 00:39:06;;;;;;;;;;;9.70;99.90;;;;;;5099689;27;19932;-83
2023/05/16 00:41:32;;;;;;;;;;;9.70;99.90;;;;;;5096397;27;19923;-81
2023/05/16 00:43:58;;;;;;;;;;;9.60;99.90;;;;;;5098022;27;19951;-83
2023/05/16 00:46:23;;;;;;;;;;;9.50;99.90;;;;;;5098500;27;19998;-82
2023/05/16 00:48:49;;;;;;;;;;;9.40;99.90;;;;;;5097708;27;19924;-82
2023/05/16 00:51:15;;;;;;;;;;;9.50;99.90;;;;;;5117032;27;19928;-82
2023/05/16 00:53:41;;;;;;;;;;;9.40;99.90;;;;;;5098621;27;19927;-82
2023/05/16 00:56:07;;;;;;;;;;;9.40;99.90;;;;;;5099556;27;19985;-85
2023/05/16 00:58:32;;;;;;;;;;;9.40;99.90;;;;;;5079631;27;19934;-83
2023/05/16 01:01:00;;;;;;;;;;;9.40;99.90;;;;;;5116706;27;19932;-82
2023/05/16 01:03:26;;;;;;;;;;;9.30;99.90;;;;;;5099800;27;19973;-82
2023/05/16 01:05:52;;;;;;;;;;;9.30;99.90;;;;;;5097317;27;19928;-82
2023/05/16 01:08:18;;;;;;;;;;;9.20;99.90;;;;;;5096318;27;19976;-83
2023/05/16 01:11:09;;;;;;;;;;;9.40;99.90;;;;;;5096897;27;19924;-82
2023/05/16 01:13:53;;;;;;;;;;;9.30;99.90;;;;;;5099862;27;19927;-83
2023/05/16 01:16:29;;;;;;;;;;;9.20;99.90;;;;;;5099224;27;19928;-82
2023/05/16 01:18:55;;;;;;;;;;;9.30;99.90;;;;;;5117059;27;20378;-82
2023/05/16 01:21:50;;;;;;;;;;;9.10;99.90;;;;;;5093877;27;20039;-83
2023/05/16 01:24:23;;;;;;;;;;;9.00;99.90;;;;;;5049539;27;20395;-82
2023/05/16 01:26:48;;;;;;;;;;;9.00;99.90;;;;;;5095683;27;20421;-82
2023/05/16 01:29:14;;;;;;;;;;;9.00;99.90;;;;;;5098723;27;19960;-82
2023/05/16 01:31:40;;;;;;;;;;;9.00;99.90;;;;;;5098087;28;20019;-82
2023/05/16 01:34:05;;;;;;;;;;;9.00;99.90;;;;;;5098224;28;19983;-81
2023/05/16 01:36:47;;;;;;;;;;;8.90;99.90;;;;;;5097917;28;19932;-82
2023/05/16 01:39:13;;;;;;;;;;;8.80;99.90;;;;;;5103335;27;19954;-84
2023/05/16 01:41:41;;;;;;;;;;;8.80;99.90;;;;;;5104940;27;19928;-83
2023/05/16 01:44:14;;;;;;;;;;;8.80;99.90;;;;;;5103598;27;19927;-82
2023/05/16 01:46:41;;;;;;;;;;;8.80;99.90;;;;;;5102339;28;20387;-84
2023/05/16 01:49:07;;;;;;;;;;;8.80;99.90;;;;;;5101066;28;19980;-83
2023/05/16 01:51:34;;;;;;;;;;;8.80;99.90;;;;;;5100394;28;19958;-83
2023/05/16 01:54:04;;;;;;;;;;;8.80;99.90;;;;;;5102938;28;19927;-82
2023/05/16 01:56:30;;;;;;;;;;;8.70;99.90;;;;;;5101092;28;19987;-83
2023/05/16 01:58:56;;;;;;;;;;;8.70;99.90;;;;;;5104687;28;20030;-82
2023/05/16 02:01:22;;;;;;;;;;;8.70;99.90;;;;;;5081578;28;19928;-82
2023/05/16 02:03:47;;;;;;;;;;;8.70;99.90;;;;;;5105970;28;19931;-82
2023/05/16 02:06:13;;;;;;;;;;;8.70;99.90;;;;;;5105403;28;19931;-84
2023/05/16 02:08:39;;;;;;;;;;;8.60;99.90;;;;;;5102530;28;19923;-83
2023/05/16 02:11:04;;;;;;;;;;;8.50;99.90;;;;;;5102073;28;19928;-84
2023/05/16 02:13:30;;;;;;;;;;;8.50;99.90;;;;;;5105774;28;19933;-86
2023/05/16 02:15:56;;;;;;;;;;;8.50;99.90;;;;;;5099380;28;21359;-83
2023/05/16 02:18:22;;;;;;;;;;;8.50;99.90;;;;;;5105701;28;19934;-84
2023/05/16 02:20:48;;;;;;;;;;;8.50;99.90;;;;;;5105508;28;20023;-84
2023/05/16 02:23:14;;;;;;;;;;;8.50;99.90;;;;;;5105601;28;20505;-83
2023/05/16 02:25:39;;;;;;;;;;;8.50;99.90;;;;;;5102194;28;20488;-83
2023/05/16 02:28:05;;;;;;;;;;;8.30;99.90;;;;;;5103440;28;20364;-83
2023/05/16 02:30:31;;;;;;;;;;;8.40;99.90;;;;;;5101607;28;19924;-84
2023/05/16 02:32:57;;;;;;;;;;;8.40;99.90;;;;;;5102337;28;19931;-83
2023/05/16 02:35:23;;;;;;;;;;;8.30;99.90;;;;;;5103791;28;20018;-83
2023/05/16 02:37:48;;;;;;;;;;;8.30;99.90;;;;;;5105383;27;20054;-83
2023/05/16 02:40:14;;;;;;;;;;;8.20;99.90;;;;;;5105454;27;20037;-83
2023/05/16 02:42:40;;;;;;;;;;;8.30;99.90;;;;;;5103210;27;20322;-82
2023/05/16 02:45:05;;;;;;;;;;;8.30;99.90;;;;;;5104356;27;19939;-83
2023/05/16 02:47:31;;;;;;;;;;;8.30;99.90;;;;;;5106910;27;19963;-82
2023/05/16 02:49:56;;;;;;;;;;;8.20;99.90;;;;;;5108140;27;19938;-83
2023/05/16 02:52:22;;;;;;;;;;;8.30;99.90;;;;;;5107276;27;19963;-83
2023/05/16 02:54:48;;;;;;;;;;;8.30;99.90;;;;;;5102092;27;19927;-84
2023/05/16 02:57:13;;;;;;;;;;;8.20;99.90;;;;;;5088157;27;19924;-83
2023/05/16 02:59:39;;;;;;;;;;;8.20;99.90;;;;;;5105579;27;19923;-83
2023/05/16 03:02:05;;;;;;;;;;;8.20;99.90;;;;;;5107916;27;19967;-83
2023/05/16 03:04:30;;;;;;;;;;;8.10;99.90;;;;;;5106610;27;20449;-84
2023/05/16 03:06:56;;;;;;;;;;;8.10;99.90;;;;;;5108981;27;19976;-83
2023/05/16 03:09:21;;;;;;;;;;;8.00;99.90;;;;;;5106577;27;19927;-83
2023/05/16 03:11:47;;;;;;;;;;;8.00;99.90;;;;;;5105724;27;19927;-83
2023/05/16 03:14:12;;;;;;;;;;;8.10;99.90;;;;;;5104882;27;19980;-85
2023/05/16 03:16:40;;;;;;;;;;;8.00;99.90;;;;;;5103767;27;19933;-82
2023/05/16 03:19:06;;;;;;;;;;;8.00;99.90;;;;;;5103176;27;19977;-83
2023/05/16 03:21:31;;;;;;;;;;;7.90;99.90;;;;;;5126027;27;19924;-83
2023/05/16 03:23:57;;;;;;;;;;;7.90;99.90;;;;;;5107390;27;20034;-80
2023/05/16 03:26:23;;;;;;;;;;;7.90;99.90;;;;;;5118767;27;19928;-82
2023/05/16 03:28:50;;;;;;;;;;;7.90;99.90;;;;;;5099896;27;19977;-84
2023/05/16 03:31:15;;;;;;;;;;;8.00;99.90;;;;;;5102493;27;19951;-83
2023/05/16 03:33:41;;;;;;;;;;;7.90;99.90;;;;;;5107981;27;19928;-84
2023/05/16 03:36:07;;;;;;;;;;;7.90;99.90;;;;;;5105220;27;19969;-83
2023/05/16 03:38:32;;;;;;;;;;;7.90;99.90;;;;;;5089819;27;19935;-82
2023/05/16 03:40:58;;;;;;;;;;;7.90;99.90;;;;;;5107755;27;19931;-83
2023/05/16 03:43:24;;;;;;;;;;;7.80;99.90;;;;;;5108925;27;19934;-83
2023/05/16 03:45:49;;;;;;;;;;;7.80;99.90;;;;;;5107368;27;20010;-82
2023/05/16 03:48:15;;;;;;;;;;;7.80;99.90;;;;;;5107745;27;19927;-84
2023/05/16 03:50:40;;;;;;;;;;;7.90;99.90;;;;;;5108654;27;20010;-83
2023/05/16 03:53:06;;;;;;;;;;;7.90;99.90;;;;;;5107707;27;20016;-83
2023/05/16 03:55:32;;;;;;;;;;;7.90;99.90;;;;;;5126306;27;20384;-82
2023/05/16 03:57:57;;;;;;;;;;;8.00;99.90;;;;;;5108331;27;20342;-82
2023/05/16 04:00:23;;;;;;;;;;;7.90;99.90;;;;;;5108340;27;19923;-83
2023/05/16 04:02:48;;;;;;;;;;;7.90;99.90;;;;;;5090288;27;19928;-82
2023/05/16 04:05:14;;;;;;;;;;;7.90;99.90;;;;;;5107278;27;19946;-82
2023/05/16 04:07:40;;;;;;;;;;;8.00;99.90;;;;;;5122436;27;19924;-82
2023/05/16 04:10:05;;;;;;;;;;;8.00;99.90;;;;;;5107991;27;20315;-83
2023/05/16 04:12:31;;;;;;;;;;;8.00;99.90;;;;;;5108593;27;19984;-83
2023/05/16 04:14:57;;;;;;;;;;;8.10;99.90;;;;;;5106157;27;19939;-82
2023/05/16 04:17:22;;;;;;;;;;;8.00;99.90;;;;;;5107074;27;19993;-83
2023/05/16 04:19:48;;;;;;;;;;;8.00;99.90;;;;;;5105352;27;19928;-83
2023/05/16 04:22:14;;;;;;;;;;;8.10;99.90;;;;;;5105425;27;20257;-85
2023/05/16 04:24:39;;;;;;;;;;;8.00;99.90;;;;;;5102939;27;19966;-82
2023/05/16 04:27:07;;;;;;;;;;;8.00;99.90;;;;;;5105955;27;19923;-84
2023/05/16 04:29:34;;;;;;;;;;;8.00;99.90;;;;;;5090432;27;19927;-83
2023/05/16 04:31:59;;;;;;;;;;;8.10;99.90;;;;;;5086428;27;19927;-83
2023/05/16 04:34:26;;;;;;;;;;;8.10;99.90;;;;;;5104761;27;20438;-82
2023/05/16 04:36:52;;;;;;;;;;;8.10;99.90;;;;;;5103426;27;19934;-83
2023/05/16 04:39:18;;;;;;;;;;;8.20;99.90;;;;;;5099395;27;19927;-82
2023/05/16 04:41:43;;;;;;;;;;;8.40;99.90;;;;;;5104412;27;19930;-82
2023/05/16 04:44:10;;;;;;;;;;;8.40;99.90;;;;;;5103015;27;20054;-83
2023/05/16 04:46:35;;;;;;;;;;;8.40;99.90;;;;;;5103632;27;20642;-83
2023/05/16 04:49:01;;;;;;;;;;;8.60;99.90;;;;;;5102370;27;19927;-82
2023/05/16 04:51:27;;;;;;;;;;;9.00;99.90;;;;;;5087655;27;20026;-83
2023/05/16 04:53:52;;;;;;;;;;;9.80;99.90;;;;;;5103941;27;19931;-82
2023/05/16 04:56:19;;;;;;;;;;;11.20;99.90;;;;;;5102927;27;19954;-83
2023/05/16 04:58:44;;;;;;;;;;;12.40;99.90;;;;;;5104512;27;19974;-84
2023/05/16 05:01:10;;;;;;;;;;;12.90;99.90;;;;;;5098639;27;20025;-84
2023/05/16 05:03:36;;;;;;;;;;;12.70;99.90;;;;;;5101443;27;19932;-84
2023/05/16 05:06:02;;;;;;;;;;;13.50;99.90;;;;;;5105086;27;19930;-83
2023/05/16 05:08:27;;;;;;;;;;;14.20;99.90;;;;;;5107408;27;19959;-84
2023/05/16 05:10:54;;;;;;;;;;;15.00;99.90;;;;;;5105132;27;20004;-82
2023/05/16 05:13:20;;;;;;;;;;;14.60;99.90;;;;;;5105588;27;20387;-83
2023/05/16 05:15:45;;;;;;;;;;;15.60;99.90;;;;;;5101878;27;19932;-83
2023/05/16 05:18:11;;;;;;;;;;;16.40;99.90;;;;;;5103908;27;19932;-83
2023/05/16 05:20:36;;;;;;;;;;;17.20;99.90;;;;;;5104082;27;19934;-82
2023/05/16 05:23:02;;;;;;;;;;;17.40;99.90;;;;;;5106190;27;19928;-83
2023/05/16 05:25:27;;;;;;;;;;;17.80;99.90;;;;;;5102767;27;19938;-84
2023/05/16 05:27:53;;;;;;;;;;;18.30;99.90;;;;;;5106695;27;19927;-84
2023/05/16 05:30:18;;;;;;;;;;;18.40;99.90;;;;;;5108259;27;19923;-85
2023/05/16 05:32:44;;;;;;;;;;;18.70;99.90;;;;;;5105806;27;20376;-84
2023/05/16 05:35:10;;;;;;;;;;;18.10;99.90;;;;;;5123592;27;19938;-84
2023/05/16 05:37:35;;;;;;;;;;;18.40;99.90;;;;;;5098304;28;19953;-84
2023/05/16 05:40:01;;;;;;;;;;;18.30;99.90;;;;;;5104736;27;19978;-83
2023/05/16 05:42:27;;;;;;;;;;;18.30;99.90;;;;;;5100028;28;20303;-86
2023/05/16 05:44:52;;;;;;;;;;;17.20;99.90;;;;;;5102877;27;19934;-84
2023/05/16 05:47:18;;;;;;;;;;;15.80;99.90;;;;;;5102583;27;19927;-85
2023/05/16 05:49:44;;;;;;;;;;;14.90;99.90;;;;;;5102036;28;19927;-87
2023/05/16 05:52:09;;;;;;;;;;;14.80;99.90;;;;;;5099694;28;20334;-85
2023/05/16 05:54:35;;;;;;;;;;;14.80;99.90;;;;;;5098573;28;19950;-84
2023/05/16 05:57:00;;;;;;;;;;;14.40;99.90;;;;;;5099317;28;20451;-85
2023/05/16 05:59:26;;;;;;;;;;;14.30;99.90;;;;;;5099157;28;20017;-83
2023/05/16 06:01:52;;;;;;;;;;;14.30;99.90;;;;;;5100041;28;19934;-85
2023/05/16 06:04:18;;;;;;;;;;;14.60;99.90;;;;;;5113279;27;19928;-84
2023/05/16 06:06:43;;;;;;;;;;;14.40;99.90;;;;;;5101104;28;19938;-84
2023/05/16 06:09:09;;;;;;;;;;;14.00;99.90;;;;;;5102727;28;19928;-84
2023/05/16 06:11:34;;;;;;;;;;;14.40;99.90;;;;;;5101065;28;19935;-86
2023/05/16 06:14:00;;;;;;;;;;;14.40;99.90;;;;;;5104317;27;19953;-84
2023/05/16 06:16:26;;;;;;;;;;;13.80;99.90;;;;;;5104606;27;19977;-86
2023/05/16 06:18:51;;;;;;;;;;;14.00;99.90;;;;;;5106613;27;20505;-85
2023/05/16 06:21:17;;;;;;;;;;;14.10;99.90;;;;;;5107131;27;19927;-86
2023/05/16 06:23:42;;;;;;;;;;;14.10;99.90;;;;;;5085668;27;19939;-86
2023/05/16 06:26:08;;;;;;;;;;;14.20;99.90;;;;;;5103879;27;19928;-84
2023/05/16 06:28:36;;;;;;;;;;;14.10;99.90;;;;;;5106026;27;19931;-84
2023/05/16 06:31:02;;;;;;;;;;;14.30;99.90;;;;;;5108810;27;19927;-82
2023/05/16 06:33:27;;;;;;;;;;;14.60;99.90;;;;;;5100840;27;19931;-84
2023/05/16 06:35:53;;;;;;;;;;;14.50;99.90;;;;;;5107122;27;19931;-83
2023/05/16 06:38:18;;;;;;;;;;;14.40;99.90;;;;;;5090955;27;20018;-86
2023/05/16 06:40:44;;;;;;;;;;;14.60;99.90;;;;;;5084314;27;19973;-85
2023/05/16 06:43:10;;;;;;;;;;;14.50;99.90;;;;;;5105104;27;19946;-83
2023/05/16 06:45:36;;;;;;;;;;;14.60;99.90;;;;;;5103898;27;19974;-83
2023/05/16 06:48:02;;;;;;;;;;;14.60;99.90;;;;;;5104863;27;20510;-83
2023/05/16 06:50:27;;;;;;;;;;;15.20;99.90;;;;;;5085942;27;19930;-84
2023/05/16 06:52:53;;;;;;;;;;;14.50;99.90;;;;;;5088827;27;19927;-87
2023/05/16 06:55:19;;;;;;;;;;;14.90;99.90;;;;;;5099794;27;19938;-84
2023/05/16 06:57:44;;;;;;;;;;;14.80;99.90;;;;;;5103406;27;20392;-83
2023/05/16 07:00:10;;;;;;;;;;;14.40;99.90;;;;;;5089316;27;19927;-84
2023/05/16 07:02:36;;;;;;;;;;;14.50;99.90;;;;;;5110861;27;19933;-89
2023/05/16 07:05:01;;;;;;;;;;;14.30;99.90;;;;;;5107241;27;19927;-83
2023/05/16 07:07:27;;;;;;;;;;;13.90;99.90;;;;;;5109475;27;19931;-84
2023/05/16 07:09:53;;;;;;;;;;;13.90;99.90;;;;;;5107211;27;19930;-84
2023/05/16 07:12:19;;;;;;;;;;;13.70;99.90;;;;;;5105590;27;20019;-83
2023/05/16 07:14:45;;;;;;;;;;;13.60;99.90;;;;;;5091806;27;19927;-84
2023/05/16 07:17:11;;;;;;;;;;;13.40;99.90;;;;;;5093312;27;19924;-82
2023/05/16 07:19:36;;;;;;;;;;;13.50;99.90;;;;;;5109221;27;19928;-81
2023/05/16 07:22:02;;;;;;;;;;;13.40;99.90;;;;;;5109810;27;20004;-82
2023/05/16 07:24:28;;;;;;;;;;;13.50;99.90;;;;;;5107634;27;19934;-84
2023/05/16 07:26:53;;;;;;;;;;;13.50;99.90;;;;;;5108286;27;20134;-86
2023/05/16 07:29:19;;;;;;;;;;;13.30;99.90;;;;;;5109496;27;19923;-85
2023/05/16 07:31:44;;;;;;;;;;;13.10;99.90;;;;;;5092742;27;19927;-84
2023/05/16 07:34:10;;;;;;;;;;;13.10;99.90;;;;;;5108767;27;19976;-87
2023/05/16 07:36:36;;;;;;;;;;;13.00;99.90;;;;;;5109073;27;19931;-87
2023/05/16 07:39:02;;;;;;;;;;;13.10;99.90;;;;;;5106570;27;20376;-85
2023/05/16 07:41:33;;;;;;;;;;;12.60;99.90;;;;;;5110403;27;19995;-83
2023/05/16 07:43:59;;;;;;;;;;;13.00;99.90;;;;;;5108032;27;19931;-86
2023/05/16 07:46:24;;;;;;;;;;;13.70;99.90;;;;;;5108260;27;19934;-84
2023/05/16 07:48:50;;;;;;;;;;;14.00;99.90;;;;;;5105346;27;19934;-84
2023/05/16 07:51:16;;;;;;;;;;;14.10;99.90;;;;;;5103898;27;19931;-85
2023/05/16 07:53:41;;;;;;;;;;;14.30;99.90;;;;;;5105902;27;19938;-84
2023/05/16 07:56:07;;;;;;;;;;;14.30;99.90;;;;;;5103747;27;19963;-85
2023/05/16 07:58:32;;;;;;;;;;;14.70;99.90;;;;;;5105452;27;19934;-85
2023/05/16 08:00:58;;;;;;;;;;;14.60;99.90;;;;;;5108062;27;19976;-83
2023/05/16 08:03:24;;;;;;;;;;;14.60;99.90;;;;;;5100116;27;20006;-84
2023/05/16 08:05:50;;;;;;;;;;;14.60;99.90;;;;;;5102321;27;19958;-82
2023/05/16 08:08:16;;;;;;;;;;;14.50;99.90;;;;;;5096920;27;19938;-84
2023/05/16 08:10:41;;;;;;;;;;;14.20;99.90;;;;;;5094832;27;19931;-83
2023/05/16 08:13:10;;;;;;;;;;;14.70;99.90;;;;;;5102245;27;20323;-86
2023/05/16 08:15:35;;;;;;;;;;;14.50;99.90;;;;;;5100104;27;19935;-83
2023/05/16 08:18:01;;;;;;;;;;;14.60;99.90;;;;;;5104879;27;20798;-87
2023/05/16 08:20:26;;;;;;;;;;;14.70;99.90;;;;;;5103017;27;19936;-86
2023/05/16 08:22:52;;;;;;;;;;;15.10;99.90;;;;;;5102508;27;19927;-87
2023/05/16 08:25:18;;;;;;;;;;;14.90;99.90;;;;;;5104078;27;19931;-85
2023/05/16 08:27:44;;;;;;;;;;;14.90;99.90;;;;;;5106864;27;20533;-84
2023/05/16 08:30:10;;;;;;;;;;;14.90;99.90;;;;;;5098580;27;19934;-88
2023/05/16 08:32:36;;;;;;;;;;;14.70;99.90;;;;;;5104707;27;19934;-85
2023/05/16 08:35:02;;;;;;;;;;;15.20;99.90;;;;;;5086887;27;19928;-85
2023/05/16 08:37:34;;;;;;;;;;;15.40;99.90;;;;;;5102244;27;19968;-84
2023/05/16 08:39:59;;;;;;;;;;;15.90;99.90;;;;;;5104132;27;20014;-82
2023/05/16 08:42:26;;;;;;;;;;;15.50;99.90;;;;;;5103936;27;20030;-83
2023/05/16 08:44:52;;;;;;;;;;;14.80;99.90;;;;;;5101000;27;20108;-83
2023/05/16 08:47:18;;;;;;;;;;;15.00;99.90;;;;;;5098015;27;20001;-83
2023/05/16 08:49:46;;;;;;;;;;;15.80;99.90;;;;;;5101963;27;19932;-83
2023/05/16 08:52:12;;;;;;;;;;;15.70;99.90;;;;;;5088397;27;19935;-83
2023/05/16 08:54:38;;;;;;;;;;;14.80;99.90;;;;;;5105015;27;20018;-83
2023/05/16 08:57:04;;;;;;;;;;;14.60;99.90;;;;;;5105682;27;20020;-85
2023/05/16 08:59:30;;;;;;;;;;;14.60;99.90;;;;;;5102092;27;19962;-84
2023/05/16 09:01:55;;;;;;;;;;;15.60;99.90;;;;;;5104184;27;20411;-88
2023/05/16 09:04:21;;;;;;;;;;;14.80;99.90;;;;;;5104866;27;19933;-83
2023/05/16 09:06:47;;;;;;;;;;;14.70;99.90;;;;;;5104969;27;20002;-85
2023/05/16 09:09:13;;;;;;;;;;;14.80;99.90;;;;;;5104220;27;20026;-82
2023/05/16 09:11:38;;;;;;;;;;;15.50;99.90;;;;;;5106498;27;19928;-81
2023/05/16 09:14:04;;;;;;;;;;;15.80;99.90;;;;;;5103300;27;19927;-82
2023/05/16 09:16:30;;;;;;;;;;;16.10;99.90;;;;;;5121401;27;20303;-84
2023/05/16 09:18:57;;;;;;;;;;;16.50;99.90;;;;;;5106454;27;19931;-82
2023/05/16 09:21:25;;;;;;;;;;;16.40;99.90;;;;;;5105600;27;19972;-84
2023/05/16 09:23:51;;;;;;;;;;;16.20;99.90;;;;;;5103960;27;20440;-82
2023/05/16 09:26:17;;;;;;;;;;;16.50;99.90;;;;;;5122251;27;19961;-86
2023/05/16 09:28:43;;;;;;;;;;;16.50;99.90;;;;;;5103517;27;20311;-83
2023/05/16 09:31:26;;;;;;;;;;;16.50;99.90;;;;;;5089641;27;20009;-82
2023/05/16 09:33:52;;;;;;;;;;;17.00;99.90;;;;;;5108357;27;19931;-85
2023/05/16 09:36:18;;;;;;;;;;;16.70;99.90;;;;;;5101590;27;20336;-82
2023/05/16 09:38:44;;;;;;;;;;;16.40;99.90;;;;;;5104535;27;20064;-83
2023/05/16 09:41:09;;;;;;;;;;;16.10;99.90;;;;;;5104829;27;19923;-81
2023/05/16 09:43:37;;;;;;;;;;;16.30;99.90;;;;;;5097626;27;19928;-85
2023/05/16 09:46:02;;;;;;;;;;;16.60;99.90;;;;;;5099244;27;20711;-85
2023/05/16 09:48:28;;;;;;;;;;;16.40;99.90;;;;;;5101365;27;20022;-84
2023/05/16 09:50:53;;;;;;;;;;;16.50;99.90;;;;;;5089942;28;19934;-85
2023/05/16 09:53:25;;;;;;;;;;;16.80;99.90;;;;;;5088486;28;19978;-84
2023/05/16 09:55:58;;;;;;;;;;;16.50;99.90;;;;;;5106365;28;20010;-85
2023/05/16 09:58:27;;;;;;;;;;;17.00;99.90;;;;;;5105088;28;19927;-82
2023/05/16 10:00:54;;;;;;;;;;;17.10;99.90;;;;;;5108117;27;19979;-84
2023/05/16 10:03:20;;;;;;;;;;;16.20;99.90;;;;;;5104061;27;19924;-84
2023/05/16 10:05:45;;;;;;;;;;;16.20;99.90;;;;;;5107002;28;19927;-84
2023/05/16 10:08:11;;;;;;;;;;;17.30;99.90;;;;;;5100887;28;19975;-82
2023/05/16 10:10:37;;;;;;;;;;;17.60;99.90;;;;;;5107488;28;19963;-86
2023/05/16 10:13:04;;;;;;;;;;;17.70;99.90;;;;;;5104601;28;19932;-85
2023/05/16 10:15:29;;;;;;;;;;;16.90;99.90;;;;;;5104767;28;19928;-84
2023/05/16 10:17:58;;;;;;;;;;;17.10;99.90;;;;;;5106684;28;19931;-85
2023/05/16 10:20:25;;;;;;;;;;;17.30;99.90;;;;;;5107430;28;20451;-85
2023/05/16 10:22:52;;;;;;;;;;;17.50;99.90;;;;;;5100550;28;20025;-81
2023/05/16 10:25:35;;;;;;;;;;;17.60;99.90;;;;;;5107035;28;19928;-82
2023/05/16 10:28:01;;;;;;;;;;;17.40;99.90;;;;;;5107087;28;20529;-85
2023/05/16 10:30:27;;;;;;;;;;;16.20;99.90;;;;;;5102696;28;20010;-81
2023/05/16 10:32:53;;;;;;;;;;;16.60;99.90;;;;;;5124067;28;20018;-84
2023/05/16 10:35:20;;;;;;;;;;;17.30;99.90;;;;;;5104858;28;19928;-83
2023/05/16 10:37:47;;;;;;;;;;;17.50;99.90;;;;;;5123182;28;20378;-83
2023/05/16 10:40:13;;;;;;;;;;;16.80;99.90;;;;;;5090946;28;19924;-81
2023/05/16 10:42:38;;;;;;;;;;;16.90;99.90;;;;;;5107452;27;19933;-84
2023/05/16 10:45:19;;;;;;;;;;;16.40;99.90;;;;;;5106791;28;20560;-84
2023/05/16 10:48:05;;;;;;;;;;;17.10;99.90;;;;;;5104899;28;19928;-85
2023/05/16 10:50:32;;;;;;;;;;;16.60;99.90;;;;;;5105808;28;19923;-83
2023/05/16 10:53:10;;;;;;;;;;;16.50;99.90;;;;;;5090248;28;19935;-84
2023/05/16 10:55:37;;;;;;;;;;;16.10;99.90;;;;;;5090539;28;20404;-83
2023/05/16 10:58:03;;;;;;;;;;;16.50;99.90;;;;;;5106821;27;20026;-85
2023/05/16 11:00:29;;;;;;;;;;;16.10;99.90;;;;;;5108493;27;20027;-83
2023/05/16 11:03:03;;;;;;;;;;;16.70;99.90;;;;;;5110382;27;19955;-85
2023/05/16 11:05:28;;;;;;;;;;;17.30;99.90;;;;;;5108792;27;20438;-81
2023/05/16 11:08:07;;;;;;;;;;;17.90;99.90;;;;;;5128819;27;19927;-83
2023/05/16 11:10:33;;;;;;;;;;;17.90;99.90;;;;;;5107881;27;19927;-89
2023/05/16 11:13:02;;;;;;;;;;;17.60;99.90;;;;;;5109749;27;19930;-84
2023/05/16 11:15:30;;;;;;;;;;;18.30;99.90;;;;;;5110873;27;19932;-81
2023/05/16 11:18:12;;;;;;;;;;;18.40;99.90;;;;;;5108873;27;20015;-83
2023/05/16 11:20:38;;;;;;;;;;;17.40;99.90;;;;;;5108132;27;20372;-82
2023/05/16 11:23:17;;;;;;;;;;;17.80;99.90;;;;;;5110449;27;19927;-81
2023/05/16 11:26:09;;;;;;;;;;;17.80;99.90;;;;;;5107169;27;20027;-87
2023/05/16 11:28:34;;;;;;;;;;;17.60;99.90;;;;;;5100115;27;20357;-85
2023/05/16 11:31:01;;;;;;;;;;;17.90;99.90;;;;;;5111448;27;19927;-84
2023/05/16 11:33:29;;;;;;;;;;;17.60;99.90;;;;;;5110123;27;19980;-83
2023/05/16 11:36:03;;;;;;;;;;;17.90;99.90;;;;;;5108812;27;19923;-81
2023/05/16 11:38:30;;;;;;;;;;;18.20;99.90;;;;;;5109815;27;19931;-82
2023/05/16 11:41:00;;;;;;;;;;;17.10;99.50;;;;;;5128963;27;20495;-83
2023/05/16 11:43:26;;;;;;;;;;;17.00;99.90;;;;;;5110937;27;19986;-80
2023/05/16 11:45:55;;;;;;;;;;;17.40;99.90;;;;;;5125738;27;20345;-82
2023/05/16 11:48:24;;;;;;;;;;;17.40;99.90;;;;;;5103208;27;19927;-82
2023/05/16 11:50:52;;;;;;;;;;;18.30;99.90;;;;;;5106165;27;19949;-84
2023/05/16 11:53:18;;;;;;;;;;;18.30;99.90;;;;;;5101447;27;20684;-84
2023/05/16 11:55:44;;;;;;;;;;;18.40;99.90;;;;;;5101367;27;19927;-81
2023/05/16 11:58:11;;;;;;;;;;;18.40;99.10;;;;;;5106167;27;20014;-83
2023/05/16 12:00:46;;;;;;;;;;;18.50;99.90;;;;;;5108622;27;20455;-83
2023/05/16 12:03:11;;;;;;;;;;;18.30;99.90;;;;;;5108549;27;19923;-82
2023/05/16 12:05:38;;;;;;;;;;;18.70;99.90;;;;;;5108174;27;20410;-83
2023/05/16 12:08:05;;;;;;;;;;;18.70;99.90;;;;;;5127418;27;20030;-82
2023/05/16 12:10:32;;;;;;;;;;;18.30;99.90;;;;;;5124048;27;20461;-84
2023/05/16 12:12:58;;;;;;;;;;;18.40;99.90;;;;;;5106666;27;19942;-82
2023/05/16 12:15:24;;;;;;;;;;;18.10;99.90;;;;;;5102811;27;19992;-85
2023/05/16 12:17:50;;;;;;;;;;;18.10;99.90;;;;;;5108789;27;19930;-84
2023/05/16 12:20:16;;;;;;;;;;;16.40;99.90;;;;;;5107762;27;19923;-85
2023/05/16 12:22:47;;;;;;;;;;;17.50;99.90;;;;;;5104158;27;19942;-81
2023/05/16 12:25:29;;;;;;;;;;;17.60;99.90;;;;;;5104464;27;19928;-82
2023/05/16 12:27:56;;;;;;;;;;;17.30;99.90;;;;;;5104353;27;19931;-83
2023/05/16 12:30:23;;;;;;;;;;;16.70;99.90;;;;;;5103126;27;19927;-83
2023/05/16 12:33:15;;;;;;;;;;;16.10;99.90;;;;;;5085833;27;19938;-83
2023/05/16 12:35:42;;;;;;;;;;;15.80;99.90;;;;;;5099049;27;19930;-85
2023/05/16 12:38:08;;;;;;;;;;;15.70;99.90;;;;;;5101673;27;19934;-83
2023/05/16 12:40:40;;;;;;;;;;;15.20;99.90;;;;;;5102134;27;19931;-86
2023/05/16 12:43:12;;;;;;;;;;;15.00;99.90;;;;;;5101042;27;19939;-85
2023/05/16 12:45:38;;;;;;;;;;;14.60;99.90;;;;;;5098641;27;19938;-84
2023/05/16 12:48:05;;;;;;;;;;;14.60;99.90;;;;;;5104452;27;19928;-82
2023/05/16 12:50:32;;;;;;;;;;;15.40;99.90;;;;;;5105222;27;19928;-80
2023/05/16 12:52:58;;;;;;;;;;;15.20;99.90;;;;;;5106289;27;19950;-80
2023/05/16 12:55:23;;;;;;;;;;;15.60;99.90;;;;;;5106097;27;20042;-82
2023/05/16 12:57:49;;;;;;;;;;;16.00;99.90;;;;;;5107654;27;20384;-82
2023/05/16 13:00:17;;;;;;;;;;;16.60;99.90;;;;;;5123514;27;20312;-83
2023/05/16 13:02:43;;;;;;;;;;;16.90;99.90;;;;;;5087712;27;19958;-84
2023/05/16 13:05:09;;;;;;;;;;;17.10;99.90;;;;;;5106838;27;20693;-83
2023/05/16 13:07:35;;;;;;;;;;;17.90;99.90;;;;;;5107879;27;20010;-84
2023/05/16 13:10:00;;;;;;;;;;;18.30;99.90;;;;;;5104893;27;20076;-83
2023/05/16 13:12:26;;;;;;;;;;;18.30;99.90;;;;;;5102921;27;20444;-82
2023/05/16 13:14:52;;;;;;;;;;;18.60;99.90;;;;;;5122189;27;20039;-83
2023/05/16 13:17:18;;;;;;;;;;;17.90;99.90;;;;;;5106644;27;20304;-84
2023/05/16 13:19:43;;;;;;;;;;;16.80;99.90;;;;;;5104638;27;19948;-84
2023/05/16 13:22:09;;;;;;;;;;;16.30;99.90;;;;;;5103673;27;19927;-84
2023/05/16 13:24:34;;;;;;;;;;;16.10;99.90;;;;;;5086585;27;19931;-84
2023/05/16 13:27:00;;;;;;;;;;;15.50;99.90;;;;;;5102311;27;19927;-82
2023/05/16 13:29:25;;;;;;;;;;;15.30;99.90;;;;;;5105432;27;19924;-82
2023/05/16 13:31:51;;;;;;;;;;;15.60;99.90;;;;;;5106914;27;20014;-84
2023/05/16 13:34:16;;;;;;;;;;;16.20;99.90;;;;;;5103956;27;20647;-84
2023/05/16 13:36:42;;;;;;;;;;;15.50;99.90;;;;;;5102434;27;20419;-84
2023/05/16 13:39:08;;;;;;;;;;;15.60;99.90;;;;;;5103681;28;20038;-84
2023/05/16 13:41:37;;;;;;;;;;;15.20;99.90;;;;;;5104820;27;19935;-83
2023/05/16 13:44:05;;;;;;;;;;;15.30;99.90;;;;;;5102022;27;19930;-85
2023/05/16 13:46:31;;;;;;;;;;;15.20;99.90;;;;;;5101655;27;20226;-85
2023/05/16 13:48:56;;;;;;;;;;;15.40;99.90;;;;;;5103404;28;20308;-83
2023/05/16 13:51:22;;;;;;;;;;;15.40;99.90;;;;;;5103270;27;20030;-88
2023/05/16 13:53:47;;;;;;;;;;;16.00;99.90;;;;;;5102224;27;19991;-86
2023/05/16 13:56:13;;;;;;;;;;;15.90;99.90;;;;;;5103036;28;19927;-90
2023/05/16 13:58:38;;;;;;;;;;;16.10;99.90;;;;;;5095615;28;20509;-83
2023/05/16 14:01:05;;;;;;;;;;;15.60;99.90;;;;;;5104016;28;19931;-83
2023/05/16 14:03:31;;;;;;;;;;;15.90;99.90;;;;;;5101017;28;20276;-85
2023/05/16 14:05:56;;;;;;;;;;;15.60;99.90;;;;;;5102265;28;19935;-85
2023/05/16 14:08:22;;;;;;;;;;;16.20;99.90;;;;;;5100117;28;19927;-82
2023/05/16 14:10:47;;;;;;;;;;;16.30;99.90;;;;;;5098753;28;19934;-83
2023/05/16 14:13:13;;;;;;;;;;;16.00;99.90;;;;;;5096944;28;19962;-85
2023/05/16 14:15:38;;;;;;;;;;;15.70;99.90;;;;;;5098738;28;19928;-83
2023/05/16 14:18:05;;;;;;;;;;;15.80;99.90;;;;;;5097084;28;19935;-84